createdAt,value
2018-11-25T04:01:03.682Z,982.85
2018-11-25T04:02:04.260Z,982.82
2018-11-25T04:03:04.475Z,982.88
2018-11-25T04:04:04.240Z,982.82
2018-11-25T04:05:04.687Z,982.84
2018-11-25T04:06:04.511Z,982.81
2018-11-25T04:07:04.764Z,982.86
2018-11-25T04:08:04.812Z,982.81
2018-11-25T04:09:05.137Z,982.83
2018-11-25T04:10:05.745Z,982.82
2018-11-25T04:11:03.838Z,982.83
2018-11-25T04:12:03.298Z,982.79
2018-11-25T04:13:03.570Z,982.82
2018-11-25T04:14:03.702Z,982.80
2018-11-25T04:15:03.872Z,982.82
2018-11-25T04:16:04.080Z,982.86
2018-11-25T04:17:04.278Z,982.87
2018-11-25T04:18:04.549Z,982.89
2018-11-25T04:19:04.548Z,982.89
2018-11-25T04:20:04.807Z,982.93
2018-11-25T04:21:04.833Z,982.94
2018-11-25T04:22:04.973Z,982.89
2018-11-25T04:23:05.198Z,982.94
2018-11-25T04:24:05.414Z,982.95
2018-11-25T04:25:05.591Z,982.94
2018-11-25T04:26:05.839Z,982.98
2018-11-25T04:27:06.586Z,982.97
2018-11-25T04:28:06.207Z,982.95
2018-11-25T04:29:06.444Z,982.92
2018-11-25T04:30:06.698Z,982.94
2018-11-25T04:31:06.872Z,982.95
2018-11-25T04:32:06.813Z,982.93
2018-11-25T04:33:07.090Z,982.93
2018-11-25T04:34:07.202Z,982.88
2018-11-25T04:35:07.469Z,982.83
2018-11-25T04:36:07.621Z,982.81
2018-11-25T04:37:07.906Z,982.78
2018-11-25T04:38:07.913Z,982.85
2018-11-25T04:39:09.020Z,982.91
2018-11-25T04:40:08.304Z,982.97
2018-11-25T04:41:08.349Z,983.02
2018-11-25T04:42:08.503Z,983.01
2018-11-25T04:43:08.708Z,983.06
2018-11-25T04:44:08.816Z,983.04
2018-11-25T04:45:09.024Z,983.04
2018-11-25T04:46:09.350Z,983.05
2018-11-25T04:47:09.393Z,983.02
2018-11-25T04:48:09.711Z,983.01
2018-11-25T04:49:09.756Z,983.01
2018-11-25T04:50:10.067Z,982.99
2018-11-25T04:51:10.186Z,983.01
2018-11-25T04:52:10.243Z,982.95
2018-11-25T04:53:10.413Z,982.92
2018-11-25T04:54:10.616Z,982.90
2018-11-25T04:55:11.547Z,982.91
2018-11-25T04:56:11.005Z,982.85
2018-11-25T04:57:11.149Z,982.90
2018-11-25T04:58:11.324Z,982.96
2018-11-25T04:59:11.536Z,982.95
2018-11-25T05:01:11.882Z,983.00
2018-11-25T05:02:12.122Z,982.96
2018-11-25T05:03:12.123Z,982.99
2018-11-25T05:04:12.293Z,982.94
2018-11-25T05:05:12.479Z,982.90
2018-11-25T05:06:12.632Z,982.91
2018-11-25T05:07:12.765Z,982.91
2018-11-25T05:08:13.044Z,982.88
2018-11-25T05:09:13.191Z,982.89
2018-11-25T05:10:13.248Z,982.90
2018-11-25T05:11:13.450Z,982.92
2018-11-25T05:12:13.647Z,982.95
2018-11-25T05:13:13.904Z,982.90
2018-11-25T05:14:14.007Z,982.91
2018-11-25T05:15:14.115Z,982.88
2018-11-25T05:16:14.296Z,982.85
2018-11-25T05:17:14.493Z,982.84
2018-11-25T05:18:14.645Z,982.85
2018-11-25T05:19:14.846Z,982.84
2018-11-25T05:20:14.954Z,982.85
2018-11-25T05:21:15.178Z,982.84
2018-11-25T05:22:15.298Z,982.86
2018-11-25T05:23:15.400Z,982.85
2018-11-25T05:24:15.625Z,982.85
2018-11-25T05:25:15.800Z,982.82
2018-11-25T05:26:15.973Z,982.85
2018-11-25T05:27:16.073Z,982.84
2018-11-25T05:28:16.378Z,982.86
2018-11-25T05:29:16.523Z,982.81
2018-11-25T05:30:16.548Z,982.86
2018-11-25T05:31:16.729Z,982.86
2018-11-25T05:32:16.999Z,982.86
2018-11-25T05:33:17.126Z,982.90
2018-11-25T05:34:17.251Z,982.91
2018-11-25T05:35:17.424Z,982.91
2018-11-25T05:36:17.590Z,982.97
2018-11-25T05:37:17.794Z,982.90
2018-11-25T05:38:17.965Z,982.92
2018-11-25T05:39:18.122Z,982.97
2018-11-25T05:40:18.282Z,982.95
2018-11-25T05:41:18.416Z,982.95
2018-11-25T05:42:18.612Z,982.91
2018-11-25T05:43:18.773Z,982.89
2018-11-25T05:44:19.029Z,982.91
2018-11-25T05:45:19.127Z,982.85
2018-11-25T05:46:19.305Z,982.89
2018-11-25T05:47:19.524Z,982.87
2018-11-25T05:48:19.640Z,982.87
2018-11-25T05:49:19.740Z,982.82
2018-11-25T05:50:19.869Z,982.78
2018-11-25T05:51:20.160Z,982.84
2018-11-25T05:52:20.260Z,982.82
2018-11-25T05:53:20.505Z,982.84
2018-11-25T05:54:20.592Z,982.78
2018-11-25T05:55:20.744Z,982.77
2018-11-25T05:56:21.336Z,982.74
2018-11-25T05:57:21.051Z,982.74
2018-11-25T05:58:21.191Z,982.76
2018-11-25T05:59:21.376Z,982.72
2018-11-25T06:00:21.556Z,982.70
2018-11-25T06:01:21.736Z,982.71
2018-11-25T06:02:21.896Z,982.70
2018-11-25T06:03:22.101Z,982.68
2018-11-25T06:04:22.262Z,982.65
2018-11-25T06:05:22.471Z,982.67
2018-11-25T06:06:22.584Z,982.68
2018-11-25T06:07:22.778Z,982.66
2018-11-25T06:08:23.035Z,982.71
2018-11-25T06:09:23.122Z,982.68
2018-11-25T06:10:23.284Z,982.75
2018-11-25T06:11:23.402Z,982.77
2018-11-25T06:12:23.598Z,982.81
2018-11-25T06:13:23.760Z,982.84
2018-11-25T06:14:23.871Z,982.85
2018-11-25T06:15:24.084Z,982.81
2018-11-25T06:16:24.254Z,982.85
2018-11-25T06:17:24.436Z,982.82
2018-11-25T06:18:24.580Z,982.82
2018-11-25T06:19:24.722Z,982.81
2018-11-25T06:20:24.878Z,982.77
2018-11-25T06:21:25.041Z,982.78
2018-11-25T06:22:25.160Z,982.78
2018-11-25T06:23:25.356Z,982.83
2018-11-25T06:24:25.480Z,982.83
2018-11-25T06:25:25.772Z,982.82
2018-11-25T06:26:25.991Z,982.81
2018-11-25T06:27:26.030Z,982.79
2018-11-25T06:28:26.229Z,982.84
2018-11-25T06:29:26.436Z,982.85
2018-11-25T06:30:26.533Z,982.81
2018-11-25T06:31:28.000Z,982.84
2018-11-25T06:32:26.884Z,982.81
2018-11-25T06:33:26.975Z,982.76
2018-11-25T06:34:27.170Z,982.79
2018-11-25T06:35:27.300Z,982.79
2018-11-25T06:36:27.463Z,982.77
2018-11-25T06:37:27.746Z,982.80
2018-11-25T06:38:27.843Z,982.83
2018-11-25T06:39:27.939Z,982.85
2018-11-25T06:40:28.192Z,982.88
2018-11-25T06:41:33.862Z,982.88
2018-11-25T06:42:28.459Z,982.88
2018-11-25T06:43:28.672Z,982.86
2018-11-25T06:44:28.782Z,982.91
2018-11-25T06:45:28.971Z,982.91
2018-11-25T06:46:29.156Z,982.88
2018-11-25T06:47:29.307Z,982.90
2018-11-25T06:48:29.449Z,982.91
2018-11-25T06:49:29.542Z,982.88
2018-11-25T06:50:29.765Z,982.91
2018-11-25T06:51:29.930Z,982.88
2018-11-25T06:52:30.118Z,982.88
2018-11-25T06:53:30.232Z,982.86
2018-11-25T06:54:30.453Z,982.87
2018-11-25T06:55:30.540Z,982.88
2018-11-25T06:56:30.776Z,982.84
2018-11-25T06:57:30.867Z,982.85
2018-11-25T06:58:31.074Z,982.88
2018-11-25T06:59:31.198Z,982.91
2018-11-25T07:00:31.397Z,982.92
2018-11-25T07:01:31.529Z,982.93
2018-11-25T07:02:31.638Z,982.92
2018-11-25T07:03:31.811Z,982.94
2018-11-25T07:04:31.966Z,982.96
2018-11-25T07:05:32.095Z,982.95
2018-11-25T07:06:32.358Z,982.94
2018-11-25T07:07:32.581Z,982.99
2018-11-25T07:08:32.717Z,982.99
2018-11-25T07:09:32.873Z,982.99
2018-11-25T07:10:33.107Z,982.95
2018-11-25T07:11:33.194Z,982.95
2018-11-25T07:12:33.440Z,982.94
2018-11-25T07:13:33.521Z,982.93
2018-11-25T07:14:33.674Z,982.91
2018-11-25T07:15:34.051Z,982.89
2018-11-25T07:16:33.993Z,982.81
2018-11-25T07:17:34.200Z,982.84
2018-11-25T07:18:34.420Z,982.85
2018-11-25T07:19:34.621Z,982.79
2018-11-25T07:20:34.854Z,982.79
2018-11-25T07:21:35.415Z,982.79
2018-11-25T07:22:35.045Z,982.80
2018-11-25T07:23:35.197Z,982.86
2018-11-25T07:24:35.551Z,982.92
2018-11-25T07:25:35.806Z,982.96
2018-11-25T07:26:35.704Z,982.99
2018-11-25T07:27:35.880Z,982.96
2018-11-25T07:28:35.976Z,982.94
2018-11-25T07:29:36.178Z,982.98
2018-11-25T07:30:36.344Z,982.95
2018-11-25T07:31:36.517Z,982.98
2018-11-25T07:32:36.682Z,982.99
2018-11-25T07:33:36.771Z,982.93
2018-11-25T07:34:36.988Z,982.91
2018-11-25T07:35:37.169Z,982.92
2018-11-25T07:36:37.320Z,982.93
2018-11-25T07:37:37.510Z,982.85
2018-11-25T07:38:37.637Z,982.85
2018-11-25T07:39:37.834Z,982.88
2018-11-25T07:40:38.648Z,982.88
2018-11-25T07:41:39.147Z,982.86
2018-11-25T07:42:52.633Z,982.89
2018-11-25T07:43:47.055Z,982.89
2018-11-25T07:44:40.663Z,982.84
2018-11-25T07:45:42.759Z,982.86
2018-11-25T07:46:42.864Z,982.84
2018-11-25T07:49:30.388Z,982.91
2018-11-25T07:50:30.023Z,982.94
2018-11-25T07:51:37.783Z,982.95
2018-11-25T07:52:29.883Z,982.95
2018-11-25T07:53:31.771Z,982.94
2018-11-25T07:54:30.053Z,982.98
2018-11-25T07:59:31.271Z,983.00
2018-11-25T08:02:18.848Z,982.98
2018-11-25T08:04:50.154Z,982.96
2018-11-25T08:05:50.554Z,982.97
2018-11-25T08:06:56.760Z,983.00
2018-11-25T08:07:53.673Z,983.01
2018-11-25T08:12:15.306Z,982.98
2018-11-25T08:13:17.230Z,982.98
2018-11-25T08:15:16.195Z,982.97
2018-11-25T08:16:17.094Z,982.94
2018-11-25T08:17:17.991Z,982.93
2018-11-25T08:18:15.729Z,982.94
2018-11-25T08:19:15.741Z,982.95
2018-11-25T08:20:16.109Z,982.90
2018-11-25T08:21:15.888Z,982.91
2018-11-25T08:22:16.302Z,982.91
2018-11-25T08:23:17.553Z,982.97
2018-11-25T08:24:19.199Z,982.95
2018-11-25T08:25:18.255Z,982.93
2018-11-25T08:26:18.066Z,982.93
2018-11-25T08:29:01.477Z,982.93
2018-11-25T08:30:15.097Z,982.93
2018-11-25T08:35:44.398Z,982.88
2018-11-25T08:43:04.774Z,982.87
2018-11-25T08:45:51.690Z,982.84
2018-11-25T08:46:52.506Z,982.82
2018-11-25T08:47:51.893Z,982.83
2018-11-25T08:48:50.910Z,982.79
2018-11-25T08:49:50.926Z,982.77
2018-11-25T08:50:51.293Z,982.79
2018-11-25T08:51:51.319Z,982.82
2018-11-25T08:52:51.517Z,982.81
2018-11-25T08:53:51.636Z,982.82
2018-11-25T08:54:51.849Z,982.80
2018-11-25T08:55:52.058Z,982.83
2018-11-25T08:56:52.171Z,982.82
2018-11-25T08:57:52.346Z,982.80
2018-11-25T08:58:52.518Z,982.83
2018-11-25T08:59:52.594Z,982.80
2018-11-25T09:00:52.882Z,982.85
2018-11-25T09:01:53.032Z,982.84
2018-11-25T09:02:53.161Z,982.83
2018-11-25T09:03:53.533Z,982.82
2018-11-25T09:04:53.933Z,982.84
2018-11-25T09:05:53.800Z,982.85
2018-11-25T09:06:53.912Z,982.84
2018-11-25T09:07:54.068Z,982.85
2018-11-25T09:08:54.239Z,982.91
2018-11-25T09:09:54.359Z,982.91
2018-11-25T09:10:55.221Z,982.91
2018-11-25T09:11:54.771Z,982.89
2018-11-25T09:12:55.839Z,982.88
2018-11-25T09:13:54.980Z,982.89
2018-11-25T09:14:55.218Z,982.85
2018-11-25T09:15:55.494Z,982.88
2018-11-25T09:16:55.629Z,982.81
2018-11-25T09:17:55.812Z,982.84
2018-11-25T09:18:55.979Z,982.82
2018-11-25T09:19:56.102Z,982.80
2018-11-25T09:20:56.480Z,982.83
2018-11-25T09:21:56.525Z,982.79
2018-11-25T09:22:56.871Z,982.81
2018-11-25T09:23:56.794Z,982.77
2018-11-25T09:25:57.218Z,982.81
2018-11-25T09:26:57.318Z,982.65
2018-11-25T09:27:57.499Z,982.79
2018-11-25T09:28:57.781Z,982.76
2018-11-25T09:29:57.696Z,982.77
2018-11-25T09:30:57.914Z,982.79
2018-11-25T09:31:58.026Z,982.78
2018-11-25T09:32:58.298Z,982.75
2018-11-25T09:33:58.396Z,982.79
2018-11-25T09:34:58.540Z,982.76
2018-11-25T09:35:58.790Z,982.86
2018-11-25T09:36:59.022Z,982.88
2018-11-25T09:37:59.038Z,982.88
2018-11-25T09:38:59.264Z,982.89
2018-11-25T09:39:59.346Z,982.89
2018-11-25T09:40:59.533Z,982.93
2018-11-25T09:41:59.674Z,982.89
2018-11-25T09:42:59.881Z,982.87
2018-11-25T09:44:00.043Z,982.86
2018-11-25T09:45:00.263Z,982.84
2018-11-25T09:46:00.412Z,982.84
2018-11-25T09:47:00.515Z,982.84
2018-11-25T09:48:00.642Z,982.83
2018-11-25T09:49:00.896Z,982.83
2018-11-25T09:50:01.077Z,982.83
2018-11-25T09:51:01.240Z,982.84
2018-11-25T09:52:01.331Z,982.83
2018-11-25T09:53:01.571Z,982.86
2018-11-25T09:54:01.704Z,982.85
2018-11-25T09:55:01.960Z,982.84
2018-11-25T09:56:02.084Z,982.81
2018-11-25T09:57:02.280Z,982.76
2018-11-25T09:58:02.489Z,982.76
2018-11-25T09:59:02.491Z,982.74
2018-11-25T10:00:02.781Z,982.74
2018-11-25T10:01:03.022Z,982.75
2018-11-25T10:02:03.139Z,982.78
2018-11-25T10:03:03.296Z,982.77
2018-11-25T10:04:03.356Z,982.78
2018-11-25T10:05:03.652Z,982.80
2018-11-25T10:06:03.749Z,982.80
2018-11-25T10:07:03.923Z,982.77
2018-11-25T10:08:04.128Z,982.79
2018-11-25T10:09:04.319Z,982.79
2018-11-25T10:10:04.363Z,982.72
2018-11-25T10:11:04.691Z,982.74
2018-11-25T10:12:04.849Z,982.69
2018-11-25T10:13:04.962Z,982.72
2018-11-25T10:14:05.190Z,982.69
2018-11-25T10:15:05.306Z,982.68
2018-11-25T10:16:05.534Z,982.72
2018-11-25T10:17:05.652Z,982.74
2018-11-25T10:18:05.872Z,982.71
2018-11-25T10:19:06.086Z,982.64
2018-11-25T10:20:17.139Z,982.72
2018-11-25T10:21:08.633Z,982.67
2018-11-25T10:23:09.033Z,982.68
2018-11-25T10:24:14.514Z,982.66
2018-11-25T10:25:10.163Z,982.66
2018-11-25T10:26:09.542Z,982.64
2018-11-25T10:29:58.127Z,982.60
2018-11-25T10:31:00.257Z,982.60
2018-11-25T10:31:58.525Z,982.60
2018-11-25T10:32:58.652Z,982.59
2018-11-25T10:33:58.505Z,982.53
2018-11-25T10:34:58.133Z,982.55
2018-11-25T10:35:56.970Z,982.51
2018-11-25T10:36:56.144Z,982.50
2018-11-25T10:37:56.132Z,982.50
2018-11-25T10:38:56.906Z,982.52
2018-11-25T10:39:56.870Z,982.46
2018-11-25T10:40:56.570Z,982.45
2018-11-25T10:41:56.768Z,982.48
2018-11-25T10:42:56.975Z,982.48
2018-11-25T10:43:57.246Z,982.50
2018-11-25T10:44:57.458Z,982.51
2018-11-25T10:45:57.663Z,982.53
2018-11-25T10:46:57.914Z,982.41
2018-11-25T10:47:58.362Z,982.43
2018-11-25T10:48:59.306Z,982.45
2018-11-25T10:49:59.050Z,982.45
2018-11-25T10:50:58.549Z,982.46
2018-11-25T10:51:58.841Z,982.42
2018-11-25T10:52:59.120Z,982.34
2018-11-25T10:53:59.748Z,982.40
2018-11-25T10:55:00.319Z,982.39
2018-11-25T10:56:00.119Z,982.34
2018-11-25T10:56:59.586Z,982.33
2018-11-25T10:58:00.354Z,982.33
2018-11-25T10:59:00.392Z,982.31
2018-11-25T11:00:00.689Z,982.32
2018-11-25T11:01:00.958Z,982.29
2018-11-25T11:02:00.636Z,982.32
2018-11-25T11:03:02.492Z,982.30
2018-11-25T11:04:01.405Z,982.29
2018-11-25T11:05:01.765Z,982.28
2018-11-25T11:06:01.455Z,982.26
2018-11-25T11:07:02.936Z,982.26
2018-11-25T11:08:02.553Z,982.26
2018-11-25T11:09:02.731Z,982.26
2018-11-25T11:10:02.613Z,982.28
2018-11-25T11:11:02.327Z,982.25
2018-11-25T11:12:03.742Z,982.26
2018-11-25T11:13:02.975Z,982.23
2018-11-25T11:15:04.752Z,982.25
2018-11-25T11:16:04.987Z,982.20
2018-11-25T11:17:04.590Z,982.20
2018-11-25T11:18:03.587Z,982.19
2018-11-25T11:19:05.495Z,982.19
2018-11-25T11:20:05.787Z,982.17
2018-11-25T11:21:04.350Z,982.25
2018-11-25T11:22:11.056Z,982.18
2018-11-25T11:23:05.552Z,982.24
2018-11-25T11:24:04.718Z,982.24
2018-11-25T11:25:05.711Z,982.23
2018-11-25T11:26:07.041Z,982.24
2018-11-25T11:27:04.692Z,982.25
2018-11-25T11:28:05.127Z,982.26
2018-11-25T11:29:05.430Z,982.23
2018-11-25T11:30:05.283Z,982.21
2018-11-25T11:31:05.393Z,982.25
2018-11-25T11:32:05.612Z,982.19
2018-11-25T11:33:05.909Z,982.19
2018-11-25T11:34:05.941Z,982.17
2018-11-25T11:35:06.128Z,982.20
2018-11-25T11:36:20.806Z,982.20
2018-11-25T11:38:10.198Z,982.21
2018-11-25T11:39:10.084Z,982.23
2018-11-25T11:40:10.065Z,982.20
2018-11-25T11:41:09.548Z,982.19
2018-11-25T11:42:09.478Z,982.21
2018-11-25T11:43:09.611Z,982.21
2018-11-25T11:48:46.353Z,982.13
2018-11-25T11:51:45.692Z,982.05
2018-11-25T11:52:46.784Z,982.06
2018-11-25T11:53:46.399Z,981.99
2018-11-25T11:54:47.158Z,982.05
2018-11-25T11:55:47.215Z,982.03
2018-11-25T11:56:45.816Z,981.97
2018-11-25T11:57:45.433Z,981.98
2018-11-25T11:58:43.962Z,981.98
2018-11-25T11:59:43.829Z,981.99
2018-11-25T12:00:44.330Z,981.99
2018-11-25T12:01:45.123Z,982.01
2018-11-25T12:02:44.896Z,982.00
2018-11-25T12:03:44.735Z,981.98
2018-11-25T12:04:45.854Z,982.06
2018-11-25T12:05:44.874Z,982.07
2018-11-25T12:06:45.092Z,982.07
2018-11-25T12:07:45.121Z,982.08
2018-11-25T12:08:45.356Z,982.07
2018-11-25T12:09:45.568Z,982.05
2018-11-25T12:10:45.998Z,982.05
2018-11-25T12:11:45.794Z,982.04
2018-11-25T12:12:46.260Z,982.01
2018-11-25T12:13:46.030Z,982.05
2018-11-25T12:15:01.261Z,982.05
2018-11-25T12:15:46.807Z,982.11
2018-11-25T12:16:47.334Z,982.06
2018-11-25T12:17:47.019Z,982.04
2018-11-25T12:18:46.952Z,982.05
2018-11-25T12:19:47.107Z,982.03
2018-11-25T12:20:47.309Z,981.99
2018-11-25T12:21:47.463Z,981.98
2018-11-25T12:22:47.672Z,982.01
2018-11-25T12:23:47.799Z,982.03
2018-11-25T12:24:47.960Z,982.01
2018-11-25T12:25:48.085Z,982.03
2018-11-25T12:26:48.300Z,982.00
2018-11-25T12:27:48.553Z,982.03
2018-11-25T12:28:48.707Z,982.01
2018-11-25T12:29:48.810Z,981.99
2018-11-25T12:30:49.020Z,982.02
2018-11-25T12:31:49.333Z,982.02
2018-11-25T12:32:49.616Z,982.05
2018-11-25T12:33:49.990Z,982.03
2018-11-25T12:34:49.904Z,982.04
2018-11-25T12:35:49.885Z,982.02
2018-11-25T12:36:50.495Z,981.99
2018-11-25T12:37:50.266Z,982.03
2018-11-25T12:38:50.473Z,982.03
2018-11-25T12:39:50.972Z,982.00
2018-11-25T12:40:51.165Z,982.02
2018-11-25T12:41:51.069Z,982.00
2018-11-25T12:42:51.047Z,982.04
2018-11-25T12:43:51.174Z,982.02
2018-11-25T12:44:51.491Z,982.02
2018-11-25T12:45:52.017Z,981.98
2018-11-25T12:46:51.699Z,982.01
2018-11-25T12:47:52.515Z,982.00
2018-11-25T12:48:52.232Z,982.03
2018-11-25T12:49:52.396Z,982.05
2018-11-25T12:50:52.760Z,982.02
2018-11-25T12:51:52.811Z,982.01
2018-11-25T12:52:52.939Z,981.99
2018-11-25T12:53:52.954Z,981.99
2018-11-25T12:54:52.979Z,981.98
2018-11-25T12:55:53.231Z,981.93
2018-11-25T12:56:53.377Z,981.98
2018-11-25T12:57:53.441Z,981.99
2018-11-25T12:58:53.893Z,981.95
2018-11-25T12:59:53.791Z,981.94
2018-11-25T13:00:54.309Z,981.91
2018-11-25T13:01:54.261Z,981.90
2018-11-25T13:02:54.338Z,981.84
2018-11-25T13:03:54.891Z,981.85
2018-11-25T13:04:54.791Z,981.82
2018-11-25T13:05:54.774Z,981.86
2018-11-25T13:06:55.125Z,981.87
2018-11-25T13:07:55.748Z,981.81
2018-11-25T13:08:55.215Z,981.83
2018-11-25T13:09:55.364Z,981.80
2018-11-25T13:10:55.939Z,981.85
2018-11-25T13:11:55.749Z,981.87
2018-11-25T13:12:55.956Z,981.82
2018-11-25T13:13:56.141Z,981.78
2018-11-25T13:14:56.260Z,981.84
2018-11-25T13:15:56.395Z,981.82
2018-11-25T13:16:56.599Z,981.82
2018-11-25T13:17:56.777Z,981.86
2018-11-25T13:18:56.913Z,981.84
2018-11-25T13:19:57.027Z,981.83
2018-11-25T13:20:57.153Z,981.83
2018-11-25T13:21:57.381Z,981.79
2018-11-25T13:22:57.547Z,981.81
2018-11-25T13:23:57.701Z,981.83
2018-11-25T13:24:57.872Z,981.82
2018-11-25T13:25:58.042Z,981.82
2018-11-25T13:26:58.190Z,981.80
2018-11-25T13:27:58.425Z,981.80
2018-11-25T13:28:58.539Z,981.82
2018-11-25T13:29:58.667Z,981.79
2018-11-25T13:30:58.791Z,981.79
2018-11-25T13:31:59.040Z,981.80
2018-11-25T13:32:59.145Z,981.80
2018-11-25T13:33:59.357Z,981.75
2018-11-25T13:34:59.501Z,981.75
2018-11-25T13:35:59.686Z,981.74
2018-11-25T13:36:59.821Z,981.75
2018-11-25T13:37:59.967Z,981.72
2018-11-25T13:39:00.162Z,981.71
2018-11-25T13:40:00.278Z,981.77
2018-11-25T13:41:00.439Z,981.74
2018-11-25T13:42:00.693Z,981.73
2018-11-25T13:43:00.801Z,981.73
2018-11-25T13:44:00.992Z,981.73
2018-11-25T13:45:01.082Z,981.71
2018-11-25T13:46:01.283Z,981.71
2018-11-25T13:47:01.352Z,981.70
2018-11-25T13:48:01.572Z,981.68
2018-11-25T13:49:01.812Z,981.68
2018-11-25T13:50:02.046Z,981.69
2018-11-25T13:51:02.140Z,981.69
2018-11-25T13:52:02.418Z,981.73
2018-11-25T13:53:02.478Z,981.74
2018-11-25T13:54:02.597Z,981.73
2018-11-25T13:55:03.052Z,981.70
2018-11-25T13:56:02.967Z,981.73
2018-11-25T13:57:03.168Z,981.79
2018-11-25T13:58:03.355Z,981.80
2018-11-25T13:59:03.485Z,981.77
2018-11-25T14:00:03.593Z,981.75
2018-11-25T14:01:03.789Z,981.78
2018-11-25T14:02:04.040Z,981.75
2018-11-25T14:03:06.025Z,981.73
2018-11-25T14:04:04.299Z,981.72
2018-11-25T14:05:04.432Z,981.69
2018-11-25T14:06:04.636Z,981.71
2018-11-25T14:07:04.736Z,981.65
2018-11-25T14:08:04.930Z,981.69
2018-11-25T14:09:05.259Z,981.65
2018-11-25T14:10:05.278Z,981.64
2018-11-25T14:11:05.433Z,981.63
2018-11-25T14:12:05.636Z,981.64
2018-11-25T14:13:05.721Z,981.63
2018-11-25T14:14:05.895Z,981.63
2018-11-25T14:15:06.025Z,981.61
2018-11-25T14:16:06.925Z,981.58
2018-11-25T14:17:06.408Z,981.60
2018-11-25T14:18:06.546Z,981.59
2018-11-25T14:19:06.735Z,981.67
2018-11-25T14:20:06.882Z,981.62
2018-11-25T14:21:07.070Z,981.64
2018-11-25T14:22:07.123Z,981.62
2018-11-25T14:23:07.340Z,981.68
2018-11-25T14:24:07.553Z,981.65
2018-11-25T14:25:07.708Z,981.60
2018-11-25T14:26:07.871Z,981.69
2018-11-25T14:27:07.962Z,981.65
2018-11-25T14:28:08.187Z,981.65
2018-11-25T14:29:08.403Z,981.60
2018-11-25T14:30:13.207Z,981.62
2018-11-25T14:31:36.284Z,981.63
2018-11-25T14:32:12.756Z,981.56
2018-11-25T16:57:02.595Z,981.34
2018-11-25T16:57:50.837Z,981.30
2018-11-25T16:58:17.089Z,981.36
2018-11-25T16:59:39.255Z,981.32
2018-11-25T17:00:10.836Z,981.31
2018-11-25T18:32:15.388Z,981.43
2018-11-25T18:33:10.320Z,981.45
2018-11-25T18:34:12.862Z,981.45
2018-11-25T18:35:12.786Z,981.46
2018-11-25T18:38:13.321Z,981.47
2018-11-25T18:39:11.485Z,981.47
2018-11-25T18:40:11.958Z,981.52
2018-11-25T18:41:12.059Z,981.54
2018-11-25T18:42:12.170Z,981.51
2018-11-25T18:43:33.085Z,981.56
2018-11-25T18:44:19.570Z,981.56
2018-11-25T18:45:12.903Z,981.54
2018-11-25T18:46:13.326Z,981.54
2018-11-25T18:47:12.857Z,981.52
2018-11-25T18:48:13.329Z,981.50
2018-11-25T18:49:14.209Z,981.48
2018-11-25T18:50:13.291Z,981.50
2018-11-25T18:51:13.504Z,981.51
2018-11-25T18:52:13.633Z,981.51
2018-11-25T18:53:13.700Z,981.42
2018-11-25T18:54:13.970Z,981.49
2018-11-25T18:55:14.204Z,981.49
2018-11-25T18:59:53.308Z,981.49
2018-11-25T19:01:11.360Z,981.51
2018-11-25T19:11:53.806Z,981.56
2018-11-25T19:12:46.232Z,981.58
2018-11-25T19:13:53.584Z,981.59
2018-11-25T19:21:34.358Z,981.56
2018-11-25T19:21:57.244Z,981.56
2018-11-25T19:23:00.232Z,981.55
2018-11-25T19:24:02.059Z,981.57
2018-11-25T19:25:23.409Z,981.58
2018-11-25T19:26:06.362Z,981.58
2018-11-25T19:27:19.248Z,981.59
2018-11-25T19:27:59.444Z,981.58
2018-11-25T19:28:57.604Z,981.54
2018-11-25T19:31:00.366Z,981.58
2018-11-25T19:33:43.080Z,981.61
2018-11-25T19:34:53.249Z,981.60
2018-11-25T19:35:42.349Z,981.58
2018-11-25T19:36:41.284Z,981.59
2018-11-25T19:37:44.234Z,981.59
2018-11-25T19:41:50.007Z,981.60
2018-11-25T19:43:42.336Z,981.61
